Aviation Digital Data Service (ADDS)

Output produced by METARs form (1950 UTC 06 December 2016)
found at http://aviationweather.gov/adds/metars/
 
KBDR 061936Z 0620/0718 10007KT P6SM FEW035 BKN150 OVC200 
     FM070000 09008KT 5SM -RA BKN030 OVC070 
     FM070200 08010G17KT 3SM -RA BR BKN015 OVC020 
     FM070600 06010G17KT 2SM -RADZ BR SCT007 OVC012 
     FM071200 06006KT 3SM -DZ BR BKN007 OVC010 
     FM071700 VRB05KT 6SM BR BKN010 OVC025